createdAt,value
2022-11-29T00:00:34.169Z,73.73
2022-11-29T00:03:01.248Z,80.27
2022-11-29T00:05:28.685Z,75.30
2022-11-29T00:07:55.403Z,81.73
2022-11-29T00:10:22.100Z,75.77
2022-11-29T00:12:49.505Z,78.40
2022-11-29T00:15:16.250Z,77.63
2022-11-29T00:17:42.940Z,76.33
2022-11-29T00:20:10.825Z,74.43
2022-11-29T00:22:38.033Z,74.53
2022-11-29T00:25:05.788Z,79.20
2022-11-29T00:27:32.772Z,76.07
2022-11-29T00:30:01.041Z,75.33
2022-11-29T00:32:27.770Z,83.10
2022-11-29T00:34:57.222Z,79.60
2022-11-29T00:37:26.012Z,76.73
2022-11-29T00:39:52.779Z,76.60
2022-11-29T00:42:19.851Z,81.80
2022-11-29T00:44:46.566Z,77.03
2022-11-29T00:47:14.314Z,82.07
2022-11-29T00:49:41.315Z,92.50
2022-11-29T00:52:08.079Z,85.40
2022-11-29T00:54:34.751Z,91.70
2022-11-29T00:57:01.796Z,86.70
2022-11-29T00:59:29.796Z,82.63
2022-11-29T01:01:57.124Z,82.87
2022-11-29T01:04:25.289Z,84.20
2022-11-29T01:06:53.273Z,78.63
2022-11-29T01:09:23.263Z,90.00
2022-11-29T01:11:50.588Z,81.07
2022-11-29T01:14:17.495Z,77.70
2022-11-29T01:16:44.514Z,90.90
2022-11-29T01:19:11.444Z,83.07
2022-11-29T01:21:39.162Z,82.17
2022-11-29T01:24:06.091Z,79.10
2022-11-29T01:26:33.631Z,81.43
2022-11-29T01:29:01.348Z,80.60
2022-11-29T01:31:30.551Z,84.63
2022-11-29T01:33:59.858Z,74.50
2022-11-29T01:36:27.196Z,81.00
2022-11-29T01:38:55.877Z,86.87
2022-11-29T01:41:25.449Z,82.67
2022-11-29T01:44:02.063Z,81.13
2022-11-29T01:46:30.624Z,86.50
2022-11-29T01:49:03.441Z,84.67
2022-11-29T01:51:33.615Z,87.83
2022-11-29T01:54:01.135Z,83.10
2022-11-29T01:56:29.258Z,81.77
2022-11-29T01:58:56.435Z,83.37
2022-11-29T02:01:23.729Z,82.80
2022-11-29T02:03:50.409Z,74.23
2022-11-29T02:06:18.318Z,83.40
2022-11-29T02:08:45.060Z,93.30
2022-11-29T02:11:37.252Z,83.17
2022-11-29T02:14:20.623Z,76.03
2022-11-29T02:16:57.787Z,83.73
2022-11-29T02:19:46.395Z,89.60
2022-11-29T02:22:19.398Z,79.07
2022-11-29T02:24:59.995Z,88.00
2022-11-29T02:28:02.220Z,86.73
2022-11-29T02:30:53.310Z,98.03
2022-11-29T02:33:44.259Z,85.63
2022-11-29T02:36:49.404Z,82.17
2022-11-29T02:39:52.001Z,89.53
2022-11-29T02:42:55.604Z,82.40
2022-11-29T02:45:37.250Z,82.83
2022-11-29T02:48:23.041Z,84.70
2022-11-29T02:50:57.579Z,89.87
2022-11-29T02:53:29.378Z,93.33
2022-11-29T02:56:01.356Z,79.67
2022-11-29T02:58:35.123Z,80.50
2022-11-29T03:01:09.885Z,79.30
2022-11-29T03:03:43.110Z,84.20
2022-11-29T03:06:20.176Z,82.30
2022-11-29T03:08:53.851Z,93.67
2022-11-29T03:11:28.690Z,82.60
2022-11-29T03:14:07.920Z,84.03
2022-11-29T03:16:43.564Z,85.60
2022-11-29T03:19:29.199Z,92.83
2022-11-29T03:22:09.221Z,88.67
2022-11-29T03:24:42.176Z,86.77
2022-11-29T03:27:12.120Z,77.97
2022-11-29T03:29:45.058Z,85.00
2022-11-29T03:32:17.816Z,82.37
2022-11-29T03:34:57.604Z,85.77
2022-11-29T03:37:33.036Z,92.40
2022-11-29T03:40:04.438Z,90.90
2022-11-29T03:42:35.020Z,90.57
2022-11-29T03:45:07.730Z,86.80
2022-11-29T03:47:40.450Z,86.43
2022-11-29T03:50:12.842Z,81.07
2022-11-29T03:52:47.372Z,88.33
2022-11-29T03:55:31.806Z,88.33
2022-11-29T03:58:13.003Z,103.83
2022-11-29T04:01:07.289Z,89.33
2022-11-29T04:04:10.474Z,89.20
2022-11-29T04:06:54.475Z,87.30
2022-11-29T04:09:38.958Z,92.63
2022-11-29T04:12:44.431Z,102.33
2022-11-29T04:15:40.361Z,84.80
2022-11-29T04:18:32.324Z,83.87
2022-11-29T04:21:30.040Z,95.53
2022-11-29T04:24:14.268Z,98.90
2022-11-29T04:27:28.674Z,87.17
2022-11-29T04:30:13.395Z,90.40
2022-11-29T04:33:12.947Z,87.03
2022-11-29T04:36:04.556Z,82.97
2022-11-29T04:38:49.115Z,88.93
2022-11-29T04:41:32.693Z,82.17
2022-11-29T04:44:26.834Z,87.67
2022-11-29T04:47:07.024Z,86.27
2022-11-29T04:50:19.405Z,89.23
2022-11-29T04:53:12.288Z,86.03
2022-11-29T04:55:46.521Z,86.43
2022-11-29T04:58:20.684Z,91.03
2022-11-29T05:00:57.780Z,84.07
2022-11-29T05:03:35.118Z,87.73
2022-11-29T05:06:13.525Z,87.93
2022-11-29T05:08:50.131Z,85.30
2022-11-29T05:11:27.152Z,83.50
2022-11-29T05:14:01.541Z,80.80
2022-11-29T05:16:48.399Z,80.13
2022-11-29T05:19:28.123Z,88.60
2022-11-29T05:22:01.927Z,83.27
2022-11-29T05:24:45.612Z,95.00
2022-11-29T05:27:18.070Z,84.90
2022-11-29T05:29:53.868Z,81.57
2022-11-29T05:32:30.073Z,82.30
2022-11-29T05:35:21.258Z,95.47
2022-11-29T05:37:51.263Z,92.17
2022-11-29T05:40:40.568Z,89.93
2022-11-29T05:43:21.024Z,90.73
2022-11-29T05:45:55.007Z,90.73
2022-11-29T05:48:30.212Z,82.30
2022-11-29T05:51:06.787Z,87.23
2022-11-29T05:53:42.116Z,82.07
2022-11-29T05:56:15.012Z,91.80
2022-11-29T05:58:49.098Z,89.60
2022-11-29T06:01:21.683Z,81.20
2022-11-29T06:03:57.960Z,79.10
2022-11-29T06:06:33.555Z,99.30
2022-11-29T06:09:08.239Z,81.87
2022-11-29T06:11:40.631Z,86.03
2022-11-29T06:14:18.558Z,84.00
2022-11-29T06:17:24.795Z,78.07
2022-11-29T06:20:10.334Z,86.23
2022-11-29T06:23:02.490Z,85.83
2022-11-29T06:25:52.611Z,85.97
2022-11-29T06:28:37.570Z,90.10
2022-11-29T06:31:12.776Z,79.13
2022-11-29T06:33:48.381Z,85.60
2022-11-29T06:36:20.653Z,96.00
2022-11-29T06:38:47.683Z,95.40
2022-11-29T06:41:19.031Z,85.03
2022-11-29T06:43:46.776Z,97.90
2022-11-29T06:46:22.703Z,95.50
2022-11-29T06:48:56.612Z,92.80
2022-11-29T06:51:33.712Z,77.23
2022-11-29T06:54:11.760Z,78.53
2022-11-29T06:56:44.287Z,86.47
2022-11-29T06:59:22.069Z,85.67
2022-11-29T07:01:57.296Z,81.70
2022-11-29T07:04:46.470Z,82.13
2022-11-29T07:07:18.992Z,87.53
2022-11-29T07:09:48.532Z,79.40
2022-11-29T07:12:15.752Z,77.20
2022-11-29T07:14:43.430Z,86.83
2022-11-29T07:17:17.724Z,94.47
2022-11-29T07:19:54.971Z,83.17
2022-11-29T07:22:37.682Z,94.20
2022-11-29T07:25:17.261Z,74.73
2022-11-29T07:27:49.924Z,87.70
2022-11-29T07:30:19.958Z,73.97
2022-11-29T07:33:00.541Z,81.83
2022-11-29T07:35:35.926Z,76.27
2022-11-29T07:38:10.256Z,81.07
2022-11-29T07:40:45.481Z,80.70
2022-11-29T07:43:35.940Z,87.97
2022-11-29T07:46:02.974Z,91.07
2022-11-29T07:48:29.668Z,83.60
2022-11-29T07:50:58.068Z,83.30
2022-11-29T07:53:25.429Z,80.77
2022-11-29T07:55:52.187Z,80.43
2022-11-29T07:58:19.190Z,83.47
2022-11-29T08:00:46.056Z,84.67
2022-11-29T08:03:13.316Z,95.20
2022-11-29T08:05:44.911Z,78.40
2022-11-29T08:08:11.596Z,82.37
2022-11-29T08:10:39.397Z,78.23
2022-11-29T08:13:06.135Z,82.87
2022-11-29T08:15:34.391Z,80.63
2022-11-29T08:18:03.851Z,82.00
2022-11-29T08:20:32.414Z,84.87
2022-11-29T08:22:59.962Z,84.17
2022-11-29T08:25:27.609Z,72.90
2022-11-29T08:27:55.546Z,87.50
2022-11-29T08:30:22.913Z,80.07
2022-11-29T08:32:51.720Z,82.17
2022-11-29T08:35:20.924Z,73.83
2022-11-29T08:37:48.259Z,74.37
2022-11-29T08:40:15.965Z,71.07
2022-11-29T08:42:42.697Z,80.17
2022-11-29T08:45:11.368Z,71.53
2022-11-29T08:47:39.515Z,76.63
2022-11-29T08:50:11.425Z,81.63
2022-11-29T08:52:57.993Z,75.50
2022-11-29T08:55:26.446Z,73.03
2022-11-29T08:57:54.651Z,94.87
2022-11-29T09:00:22.144Z,74.33
2022-11-29T09:02:49.494Z,78.17
2022-11-29T09:05:16.815Z,82.67
2022-11-29T09:07:43.698Z,70.57
2022-11-29T09:10:11.453Z,85.00
2022-11-29T09:12:39.121Z,78.67
2022-11-29T09:15:08.033Z,78.53
2022-11-29T09:17:35.446Z,73.20
2022-11-29T09:20:07.742Z,78.50
2022-11-29T09:22:34.585Z,73.90
2022-11-29T09:25:01.253Z,80.37
2022-11-29T09:27:28.864Z,73.03
2022-11-29T09:29:55.573Z,73.93
2022-11-29T09:32:22.300Z,72.17
2022-11-29T09:34:49.814Z,71.77
2022-11-29T09:37:16.702Z,78.17
2022-11-29T09:39:43.416Z,71.43
2022-11-29T09:42:26.591Z,73.87
2022-11-29T09:45:03.414Z,73.27
2022-11-29T09:47:57.197Z,75.67
2022-11-29T09:50:31.636Z,79.90
2022-11-29T09:53:20.653Z,72.07
2022-11-29T09:56:00.317Z,74.23
2022-11-29T09:58:32.439Z,77.53
2022-11-29T10:01:02.362Z,81.43
2022-11-29T10:03:33.729Z,78.60
2022-11-29T10:06:08.504Z,68.77
2022-11-29T10:08:41.236Z,81.87
2022-11-29T10:11:20.636Z,75.97
2022-11-29T10:13:52.526Z,74.17
2022-11-29T10:16:39.502Z,74.00
2022-11-29T10:19:14.780Z,84.30
2022-11-29T10:21:45.216Z,75.37
2022-11-29T10:24:17.117Z,71.60
2022-11-29T10:26:44.387Z,85.30
2022-11-29T10:29:14.274Z,82.90
2022-11-29T10:31:46.158Z,74.47
2022-11-29T10:34:15.244Z,87.37
2022-11-29T10:36:45.125Z,82.33
2022-11-29T10:39:15.994Z,81.80
2022-11-29T10:41:42.840Z,87.53
2022-11-29T10:44:13.234Z,91.27
2022-11-29T10:46:40.869Z,81.63
2022-11-29T10:49:12.256Z,91.03
2022-11-29T10:51:39.079Z,82.20
2022-11-29T10:54:18.280Z,75.70
2022-11-29T10:56:46.612Z,85.97
2022-11-29T10:59:21.076Z,89.10
2022-11-29T11:01:48.166Z,74.00
2022-11-29T11:04:17.128Z,89.40
2022-11-29T11:06:45.897Z,85.17
2022-11-29T11:09:19.887Z,80.50
2022-11-29T11:11:52.003Z,77.13
2022-11-29T11:14:21.327Z,83.70
2022-11-29T11:16:48.296Z,76.80
2022-11-29T11:19:30.020Z,85.33
2022-11-29T11:21:58.611Z,84.17
2022-11-29T11:24:28.978Z,85.93
2022-11-29T11:26:56.231Z,84.07
2022-11-29T11:29:26.153Z,81.43
2022-11-29T11:31:55.749Z,79.07
2022-11-29T11:34:28.384Z,83.33
2022-11-29T11:37:17.840Z,77.07
2022-11-29T11:39:46.750Z,81.73
2022-11-29T11:42:37.401Z,83.07
2022-11-29T11:45:22.537Z,90.13
2022-11-29T11:47:54.919Z,87.03
2022-11-29T11:50:31.052Z,80.53
2022-11-29T11:52:59.793Z,84.77
2022-11-29T11:55:34.329Z,87.97
2022-11-29T11:58:10.297Z,93.87
2022-11-29T12:01:02.800Z,84.63
2022-11-29T12:03:45.011Z,82.80
2022-11-29T12:06:29.798Z,85.10
2022-11-29T12:09:11.167Z,76.30
2022-11-29T12:11:44.335Z,84.03
2022-11-29T12:14:19.963Z,78.30
2022-11-29T12:16:49.874Z,81.53
2022-11-29T12:19:21.305Z,83.83
2022-11-29T12:21:54.637Z,76.30
2022-11-29T12:24:28.372Z,77.70
2022-11-29T12:27:00.019Z,85.77
2022-11-29T12:29:30.084Z,87.70
2022-11-29T12:32:14.609Z,89.57
2022-11-29T12:34:56.765Z,79.80
2022-11-29T12:37:32.100Z,79.50
2022-11-29T12:40:04.851Z,91.83
2022-11-29T12:42:41.934Z,86.53
2022-11-29T12:45:29.805Z,83.10
2022-11-29T12:48:11.808Z,84.17
2022-11-29T12:50:50.796Z,83.27
2022-11-29T12:53:30.042Z,90.70
2022-11-29T12:56:07.293Z,81.47
2022-11-29T12:58:46.052Z,83.20
2022-11-29T13:01:23.837Z,91.00
2022-11-29T13:03:58.798Z,96.43
2022-11-29T13:06:32.861Z,88.50
2022-11-29T13:09:41.583Z,82.67
2022-11-29T13:12:15.637Z,91.50
2022-11-29T13:14:49.325Z,86.83
2022-11-29T13:17:27.178Z,92.57
2022-11-29T13:19:56.446Z,86.27
2022-11-29T13:22:29.200Z,94.57
2022-11-29T13:25:01.101Z,84.57
2022-11-29T13:27:36.784Z,90.57
2022-11-29T13:30:05.744Z,84.47
2022-11-29T13:32:36.052Z,97.27
2022-11-29T13:35:08.213Z,89.20
2022-11-29T13:37:42.072Z,92.73
2022-11-29T13:40:24.591Z,86.73
2022-11-29T13:43:02.272Z,93.90
2022-11-29T13:45:36.177Z,92.80
2022-11-29T13:48:27.680Z,83.70
2022-11-29T13:50:56.033Z,97.17
2022-11-29T13:53:25.122Z,96.17
2022-11-29T13:55:59.889Z,81.77
2022-11-29T13:58:36.314Z,96.93
2022-11-29T14:01:07.786Z,92.20
2022-11-29T14:03:38.206Z,103.70
2022-11-29T14:06:13.007Z,94.80
2022-11-29T14:11:37.000Z,98.60
2022-11-29T14:14:07.681Z,86.87
2022-11-29T14:16:40.100Z,100.03
2022-11-29T14:19:28.810Z,92.40
2022-11-29T14:22:29.726Z,89.27
2022-11-29T14:25:50.433Z,93.43
2022-11-29T14:28:30.942Z,94.47
2022-11-29T14:31:00.630Z,87.50
2022-11-29T14:33:57.319Z,101.60
2022-11-29T14:36:49.885Z,88.00
2022-11-29T14:39:40.935Z,95.90
2022-11-29T14:42:16.176Z,94.53
2022-11-29T14:44:45.561Z,98.77
2022-11-29T14:47:23.885Z,94.20
2022-11-29T14:49:53.412Z,99.33
2022-11-29T14:52:27.033Z,103.30
2022-11-29T14:55:08.962Z,97.43
2022-11-29T14:58:05.088Z,96.17
2022-11-29T15:00:54.964Z,94.10
2022-11-29T15:03:28.685Z,95.03
2022-11-29T15:05:59.014Z,89.93
2022-11-29T15:08:34.238Z,98.10
2022-11-29T15:11:05.489Z,95.33
2022-11-29T15:13:33.805Z,92.20
2022-11-29T15:16:16.992Z,90.00
2022-11-29T15:19:09.289Z,96.60
2022-11-29T15:21:46.855Z,90.57
2022-11-29T15:24:16.172Z,87.97
2022-11-29T15:26:55.374Z,96.33
2022-11-29T15:29:22.569Z,86.77
2022-11-29T15:31:53.062Z,87.83
2022-11-29T15:34:23.364Z,89.67
2022-11-29T15:36:51.441Z,96.33
2022-11-29T15:39:30.280Z,94.33
2022-11-29T15:42:02.184Z,88.53
2022-11-29T15:44:31.977Z,91.63
2022-11-29T15:47:21.158Z,81.87
2022-11-29T15:49:48.151Z,79.13
2022-11-29T15:52:23.860Z,92.53
2022-11-29T15:54:54.904Z,87.60
2022-11-29T15:57:25.949Z,92.47
2022-11-29T15:59:55.716Z,89.87
2022-11-29T16:02:25.969Z,85.33
2022-11-29T16:04:56.599Z,101.50
2022-11-29T16:07:26.180Z,92.80
2022-11-29T16:09:56.833Z,92.07
2022-11-29T16:12:24.415Z,93.10
2022-11-29T16:14:53.234Z,97.57
2022-11-29T16:17:20.343Z,95.07
2022-11-29T16:19:48.194Z,91.53
2022-11-29T16:22:23.200Z,91.07
2022-11-29T16:25:03.440Z,94.60
2022-11-29T16:27:32.888Z,92.20
2022-11-29T16:30:00.652Z,90.73
2022-11-29T16:32:29.704Z,98.90
2022-11-29T16:35:04.327Z,91.47
2022-11-29T16:37:38.142Z,91.90
2022-11-29T16:40:18.683Z,95.77
2022-11-29T16:43:05.489Z,101.13
2022-11-29T16:45:34.752Z,98.47
2022-11-29T16:48:02.226Z,92.50
2022-11-29T16:50:30.401Z,88.07
2022-11-29T16:53:49.469Z,92.90
2022-11-29T16:56:18.870Z,94.03
2022-11-29T16:59:20.988Z,99.70
2022-11-29T17:01:35.249Z,105.50
2022-11-29T17:04:01.997Z,101.67
2022-11-29T17:06:29.728Z,102.37
2022-11-29T17:09:02.059Z,94.50
2022-11-29T17:11:29.533Z,98.47
2022-11-29T17:13:56.202Z,111.83
2022-11-29T17:16:24.596Z,98.73
2022-11-29T17:18:53.048Z,99.07
2022-11-29T17:21:22.257Z,94.30
2022-11-29T17:23:49.428Z,100.90
2022-11-29T17:26:17.056Z,104.27
2022-11-29T17:28:46.107Z,98.80
2022-11-29T17:31:14.892Z,99.17
2022-11-29T17:33:41.819Z,119.03
2022-11-29T17:36:10.640Z,102.00
2022-11-29T17:38:37.779Z,102.20
2022-11-29T17:41:08.067Z,99.40
2022-11-29T17:43:35.723Z,101.97
2022-11-29T17:46:08.053Z,109.00
2022-11-29T17:48:35.243Z,100.27
2022-11-29T17:51:02.159Z,105.93
2022-11-29T17:53:29.781Z,105.13
2022-11-29T17:56:01.984Z,93.70
2022-11-29T17:58:28.859Z,101.47
2022-11-29T18:01:04.230Z,102.27
2022-11-29T18:03:33.627Z,103.20
2022-11-29T18:06:00.519Z,95.87
2022-11-29T18:08:27.713Z,98.50
2022-11-29T18:11:03.024Z,107.50
2022-11-29T18:13:30.004Z,110.07
2022-11-29T18:16:09.038Z,95.27
2022-11-29T18:18:37.698Z,92.87
2022-11-29T18:21:06.531Z,96.10
2022-11-29T18:23:35.919Z,111.37
2022-11-29T18:26:05.300Z,110.27
2022-11-29T18:28:35.291Z,101.40
2022-11-29T18:31:07.017Z,111.00
2022-11-29T18:33:33.794Z,94.10
2022-11-29T18:36:04.595Z,100.00
2022-11-29T18:38:32.160Z,102.23
2022-11-29T18:40:59.510Z,99.50
2022-11-29T18:43:26.274Z,100.17
2022-11-29T18:45:53.120Z,110.23
2022-11-29T18:48:19.851Z,104.00
2022-11-29T18:50:46.524Z,100.83
2022-11-29T18:53:13.946Z,96.87
2022-11-29T18:55:40.624Z,96.87
2022-11-29T18:58:07.724Z,92.77
2022-11-29T19:00:34.424Z,104.67
2022-11-29T19:03:01.131Z,105.17
2022-11-29T19:05:27.812Z,108.80
2022-11-29T19:07:54.570Z,103.60
2022-11-29T19:10:22.167Z,105.63
2022-11-29T19:12:50.761Z,101.10
2022-11-29T19:15:18.386Z,116.70
2022-11-29T19:17:45.328Z,101.93
2022-11-29T19:20:12.703Z,98.47
2022-11-29T19:22:39.426Z,99.43
2022-11-29T19:25:07.522Z,94.37
2022-11-29T19:27:35.289Z,105.93
2022-11-29T19:30:02.134Z,116.43
2022-11-29T19:32:29.780Z,107.40
2022-11-29T19:34:56.620Z,104.40
2022-11-29T19:37:23.450Z,120.53
2022-11-29T19:39:51.069Z,108.07
2022-11-29T19:42:17.889Z,107.47
2022-11-29T19:45:16.025Z,102.73
2022-11-29T19:47:35.080Z,100.77
2022-11-29T19:50:02.715Z,112.30
2022-11-29T19:52:36.429Z,98.63
2022-11-29T19:55:03.957Z,115.60
2022-11-29T19:57:30.675Z,108.55
2022-11-29T19:59:58.077Z,110.83
2022-11-29T20:02:25.118Z,108.30
2022-11-29T20:04:56.134Z,114.85
2022-11-29T20:07:46.355Z,106.37
2022-11-29T20:10:16.796Z,98.07
2022-11-29T20:12:54.821Z,105.17
2022-11-29T20:15:28.735Z,106.40
2022-11-29T20:18:02.698Z,106.47
2022-11-29T20:20:30.218Z,107.30
2022-11-29T20:23:06.162Z,102.30
2022-11-29T20:25:50.747Z,105.93
2022-11-29T20:28:22.673Z,110.50
2022-11-29T20:31:17.378Z,107.90
2022-11-29T20:33:48.346Z,116.30
2022-11-29T20:36:38.000Z,117.70
2022-11-29T20:39:38.018Z,109.57
2022-11-29T20:42:35.888Z,111.80
2022-11-29T20:45:08.144Z,114.65
2022-11-29T20:48:00.580Z,105.50
2022-11-29T20:50:30.266Z,109.70
2022-11-29T20:53:21.930Z,103.13
2022-11-29T20:55:49.259Z,107.13
2022-11-29T20:58:17.539Z,108.97
2022-11-29T21:00:49.741Z,116.43
2022-11-29T21:03:18.455Z,115.70
2022-11-29T21:05:45.653Z,134.00
2022-11-29T21:08:13.262Z,122.57
2022-11-29T21:10:40.347Z,101.47
2022-11-29T21:13:09.736Z,119.50
2022-11-29T21:15:39.205Z,116.13
2022-11-29T21:18:06.942Z,109.60
2022-11-29T21:20:34.962Z,117.07
2022-11-29T21:23:05.934Z,120.90
2022-11-29T21:25:42.859Z,115.90
2022-11-29T21:28:12.518Z,124.60
2022-11-29T21:30:40.277Z,112.67
2022-11-29T21:33:07.871Z,114.50
2022-11-29T21:35:36.870Z,120.33
2022-11-29T21:38:17.190Z,121.50
2022-11-29T21:40:47.930Z,123.07
2022-11-29T21:43:17.737Z,122.87
2022-11-29T21:45:56.520Z,131.97
2022-11-29T21:48:38.196Z,121.43
2022-11-29T21:51:23.291Z,112.77
2022-11-29T21:53:50.476Z,123.00
2022-11-29T21:56:17.477Z,119.03
2022-11-29T21:58:44.231Z,115.50
2022-11-29T22:01:14.773Z,115.67
2022-11-29T22:03:42.360Z,124.13
2022-11-29T22:06:14.007Z,118.13
2022-11-29T22:08:41.854Z,133.60
2022-11-29T22:11:10.915Z,118.00
2022-11-29T22:13:59.579Z,117.43
2022-11-29T22:16:26.487Z,131.10
2022-11-29T22:18:53.702Z,125.27
2022-11-29T22:21:21.270Z,111.17
2022-11-29T22:23:47.928Z,132.33
2022-11-29T22:26:14.641Z,118.00
2022-11-29T22:28:41.347Z,119.10
2022-11-29T22:31:10.698Z,146.40
2022-11-29T22:33:38.481Z,113.43
2022-11-29T22:36:06.475Z,119.67
2022-11-29T22:38:34.480Z,125.97
2022-11-29T22:41:02.420Z,122.00
2022-11-29T22:43:29.974Z,122.77
2022-11-29T22:46:03.980Z,128.43
2022-11-29T22:48:35.536Z,117.97
2022-11-29T22:51:06.739Z,121.83
2022-11-29T22:53:34.643Z,120.37
2022-11-29T22:56:02.583Z,115.63
2022-11-29T22:58:29.462Z,128.33
2022-11-29T23:01:02.371Z,118.80
2022-11-29T23:03:29.201Z,127.53
2022-11-29T23:06:01.318Z,126.47
2022-11-29T23:08:28.880Z,124.87
2022-11-29T23:10:57.303Z,125.70
2022-11-29T23:13:24.600Z,120.60
2022-11-29T23:15:51.509Z,125.13
2022-11-29T23:18:18.734Z,116.70
2022-11-29T23:20:45.749Z,121.90
2022-11-29T23:23:12.766Z,118.07
2022-11-29T23:25:47.048Z,123.70
2022-11-29T23:28:14.596Z,126.23
2022-11-29T23:30:42.079Z,126.50
2022-11-29T23:33:09.115Z,122.67
2022-11-29T23:35:35.822Z,119.27
2022-11-29T23:38:02.788Z,123.13
2022-11-29T23:40:29.715Z,116.47
2022-11-29T23:42:56.479Z,118.17
2022-11-29T23:45:23.820Z,135.27
2022-11-29T23:47:50.771Z,118.57
2022-11-29T23:50:17.716Z,120.03
2022-11-29T23:52:44.433Z,125.67
2022-11-29T23:55:11.903Z,133.60
2022-11-29T23:57:38.859Z,122.57
